sensor_id;sensor_type;location;lat;lon;timestamp;P1;durP1;ratioP1;P2;durP2;ratioP2
60241;SDS011;46103;52.076;113.488;2023-04-25T00:00:27;52.92;;;16.42;;
60241;SDS011;46103;52.076;113.488;2023-04-25T00:03:32;44.88;;;15.20;;
60241;SDS011;46103;52.076;113.488;2023-04-25T00:06:36;44.55;;;15.77;;
60241;SDS011;46103;52.076;113.488;2023-04-25T00:09:41;41.45;;;14.00;;
60241;SDS011;46103;52.076;113.488;2023-04-25T00:12:45;63.65;;;16.67;;
60241;SDS011;46103;52.076;113.488;2023-04-25T00:19:06;52.28;;;17.63;;
60241;SDS011;46103;52.076;113.488;2023-04-25T00:22:10;56.50;;;15.23;;
60241;SDS011;46103;52.076;113.488;2023-04-25T00:25:14;49.17;;;15.88;;
60241;SDS011;46103;52.076;113.488;2023-04-25T00:28:18;50.80;;;15.50;;
60241;SDS011;46103;52.076;113.488;2023-04-25T00:31:22;43.60;;;16.13;;
60241;SDS011;46103;52.076;113.488;2023-04-25T00:34:25;55.67;;;15.98;;
60241;SDS011;46103;52.076;113.488;2023-04-25T00:37:29;50.83;;;15.65;;
60241;SDS011;46103;52.076;113.488;2023-04-25T00:40:32;54.75;;;16.98;;
60241;SDS011;46103;52.076;113.488;2023-04-25T00:43:36;52.70;;;18.27;;
60241;SDS011;46103;52.076;113.488;2023-04-25T00:46:40;64.38;;;16.88;;
60241;SDS011;46103;52.076;113.488;2023-04-25T00:49:44;49.75;;;14.75;;
60241;SDS011;46103;52.076;113.488;2023-04-25T00:52:47;51.45;;;15.30;;
60241;SDS011;46103;52.076;113.488;2023-04-25T00:55:50;45.05;;;13.02;;
60241;SDS011;46103;52.076;113.488;2023-04-25T00:58:54;47.80;;;14.93;;
60241;SDS011;46103;52.076;113.488;2023-04-25T01:01:59;49.63;;;14.75;;
60241;SDS011;46103;52.076;113.488;2023-04-25T01:05:04;38.35;;;13.88;;
60241;SDS011;46103;52.076;113.488;2023-04-25T01:08:09;47.75;;;14.90;;
60241;SDS011;46103;52.076;113.488;2023-04-25T01:11:13;35.80;;;10.98;;
60241;SDS011;46103;52.076;113.488;2023-04-25T01:14:17;18.00;;;6.97;;
60241;SDS011;46103;52.076;113.488;2023-04-25T01:17:21;25.25;;;8.23;;
60241;SDS011;46103;52.076;113.488;2023-04-25T01:20:25;16.92;;;6.80;;
60241;SDS011;46103;52.076;113.488;2023-04-25T01:23:31;21.92;;;6.88;;
60241;SDS011;46103;52.076;113.488;2023-04-25T01:26:36;25.35;;;8.40;;
60241;SDS011;46103;52.076;113.488;2023-04-25T01:29:42;22.52;;;8.68;;
60241;SDS011;46103;52.076;113.488;2023-04-25T01:32:46;21.63;;;7.32;;
60241;SDS011;46103;52.076;113.488;2023-04-25T01:35:52;26.08;;;7.78;;
60241;SDS011;46103;52.076;113.488;2023-04-25T01:38:55;24.10;;;8.05;;
60241;SDS011;46103;52.076;113.488;2023-04-25T01:41:59;43.17;;;9.63;;
60241;SDS011;46103;52.076;113.488;2023-04-25T01:45:05;30.02;;;9.13;;
60241;SDS011;46103;52.076;113.488;2023-04-25T01:48:11;35.28;;;9.45;;
60241;SDS011;46103;52.076;113.488;2023-04-25T01:51:17;22.85;;;8.48;;
60241;SDS011;46103;52.076;113.488;2023-04-25T01:54:22;22.13;;;8.02;;
60241;SDS011;46103;52.076;113.488;2023-04-25T01:57:26;33.15;;;10.57;;
60241;SDS011;46103;52.076;113.488;2023-04-25T02:00:30;23.15;;;9.60;;
60241;SDS011;46103;52.076;113.488;2023-04-25T02:03:34;27.77;;;8.82;;
60241;SDS011;46103;52.076;113.488;2023-04-25T02:06:42;31.60;;;9.73;;
60241;SDS011;46103;52.076;113.488;2023-04-25T02:09:46;30.42;;;9.35;;
60241;SDS011;46103;52.076;113.488;2023-04-25T02:12:51;33.22;;;9.98;;
60241;SDS011;46103;52.076;113.488;2023-04-25T02:16:10;29.00;;;8.80;;
60241;SDS011;46103;52.076;113.488;2023-04-25T02:19:14;19.70;;;8.10;;
60241;SDS011;46103;52.076;113.488;2023-04-25T02:22:18;25.20;;;8.35;;
60241;SDS011;46103;52.076;113.488;2023-04-25T02:25:22;30.85;;;9.35;;
60241;SDS011;46103;52.076;113.488;2023-04-25T02:28:27;41.30;;;10.13;;
60241;SDS011;46103;52.076;113.488;2023-04-25T02:31:31;29.25;;;10.57;;
60241;SDS011;46103;52.076;113.488;2023-04-25T02:34:35;35.80;;;10.50;;
60241;SDS011;46103;52.076;113.488;2023-04-25T02:37:39;35.40;;;10.82;;
60241;SDS011;46103;52.076;113.488;2023-04-25T02:40:47;32.63;;;11.45;;
60241;SDS011;46103;52.076;113.488;2023-04-25T02:43:54;33.67;;;10.73;;
60241;SDS011;46103;52.076;113.488;2023-04-25T02:46:57;31.35;;;10.50;;
60241;SDS011;46103;52.076;113.488;2023-04-25T02:50:04;24.05;;;8.55;;
60241;SDS011;46103;52.076;113.488;2023-04-25T02:53:10;23.80;;;8.23;;
60241;SDS011;46103;52.076;113.488;2023-04-25T02:56:20;17.80;;;5.97;;
60241;SDS011;46103;52.076;113.488;2023-04-25T02:59:23;13.32;;;5.53;;
60241;SDS011;46103;52.076;113.488;2023-04-25T03:02:27;18.48;;;7.70;;
60241;SDS011;46103;52.076;113.488;2023-04-25T03:08:39;27.48;;;6.53;;
60241;SDS011;46103;52.076;113.488;2023-04-25T03:11:44;23.00;;;5.88;;
60241;SDS011;46103;52.076;113.488;2023-04-25T03:14:49;13.50;;;5.47;;
60241;SDS011;46103;52.076;113.488;2023-04-25T03:17:53;13.63;;;5.72;;
60241;SDS011;46103;52.076;113.488;2023-04-25T03:20:59;9.13;;;3.33;;
60241;SDS011;46103;52.076;113.488;2023-04-25T03:24:05;4.45;;;2.20;;
60241;SDS011;46103;52.076;113.488;2023-04-25T03:27:10;4.35;;;2.38;;
60241;SDS011;46103;52.076;113.488;2023-04-25T03:30:14;6.50;;;2.30;;
60241;SDS011;46103;52.076;113.488;2023-04-25T03:33:19;7.55;;;3.47;;
60241;SDS011;46103;52.076;113.488;2023-04-25T03:36:25;7.20;;;2.33;;
60241;SDS011;46103;52.076;113.488;2023-04-25T03:39:29;10.13;;;2.70;;
60241;SDS011;46103;52.076;113.488;2023-04-25T03:42:34;12.85;;;3.03;;
60241;SDS011;46103;52.076;113.488;2023-04-25T03:45:39;7.57;;;2.70;;
60241;SDS011;46103;52.076;113.488;2023-04-25T03:48:44;3.92;;;1.60;;
60241;SDS011;46103;52.076;113.488;2023-04-25T03:51:55;5.85;;;2.15;;
60241;SDS011;46103;52.076;113.488;2023-04-25T03:55:03;4.53;;;1.95;;
60241;SDS011;46103;52.076;113.488;2023-04-25T03:58:08;11.80;;;2.30;;
60241;SDS011;46103;52.076;113.488;2023-04-25T04:01:12;6.43;;;2.08;;
60241;SDS011;46103;52.076;113.488;2023-04-25T04:04:17;3.85;;;2.20;;
60241;SDS011;46103;52.076;113.488;2023-04-25T04:07:22;9.70;;;2.50;;
60241;SDS011;46103;52.076;113.488;2023-04-25T04:10:30;8.95;;;2.25;;
60241;SDS011;46103;52.076;113.488;2023-04-25T04:13:33;11.38;;;2.45;;
60241;SDS011;46103;52.076;113.488;2023-04-25T04:16:38;3.53;;;1.73;;
60241;SDS011;46103;52.076;113.488;2023-04-25T04:19:43;9.32;;;2.13;;
60241;SDS011;46103;52.076;113.488;2023-04-25T04:22:53;4.68;;;2.00;;
60241;SDS011;46103;52.076;113.488;2023-04-25T04:25:58;7.68;;;2.08;;
60241;SDS011;46103;52.076;113.488;2023-04-25T04:29:16;6.22;;;2.10;;
60241;SDS011;46103;52.076;113.488;2023-04-25T04:32:38;8.23;;;1.98;;
60241;SDS011;46103;52.076;113.488;2023-04-25T04:35:44;6.85;;;1.92;;
60241;SDS011;46103;52.076;113.488;2023-04-25T04:42:16;5.55;;;2.10;;
60241;SDS011;46103;52.076;113.488;2023-04-25T04:45:36;6.53;;;2.35;;
60241;SDS011;46103;52.076;113.488;2023-04-25T04:48:58;11.23;;;2.50;;
60241;SDS011;46103;52.076;113.488;2023-04-25T04:52:24;9.32;;;1.90;;
60241;SDS011;46103;52.076;113.488;2023-04-25T04:55:56;2.65;;;1.60;;
60241;SDS011;46103;52.076;113.488;2023-04-25T04:59:25;4.95;;;2.00;;
60241;SDS011;46103;52.076;113.488;2023-04-25T05:02:53;8.40;;;1.98;;
60241;SDS011;46103;52.076;113.488;2023-04-25T05:06:18;5.53;;;1.80;;
60241;SDS011;46103;52.076;113.488;2023-04-25T05:09:52;3.88;;;1.67;;
60241;SDS011;46103;52.076;113.488;2023-04-25T05:13:13;7.45;;;1.95;;
60241;SDS011;46103;52.076;113.488;2023-04-25T05:16:36;5.22;;;1.45;;
60241;SDS011;46103;52.076;113.488;2023-04-25T05:20:15;5.63;;;1.67;;
60241;SDS011;46103;52.076;113.488;2023-04-25T05:23:24;7.68;;;1.60;;
60241;SDS011;46103;52.076;113.488;2023-04-25T05:26:34;9.90;;;2.10;;
60241;SDS011;46103;52.076;113.488;2023-04-25T05:29:56;5.10;;;1.70;;
60241;SDS011;46103;52.076;113.488;2023-04-25T05:33:04;4.60;;;1.65;;
60241;SDS011;46103;52.076;113.488;2023-04-25T05:36:08;9.00;;;2.10;;
60241;SDS011;46103;52.076;113.488;2023-04-25T05:39:12;3.53;;;1.83;;
60241;SDS011;46103;52.076;113.488;2023-04-25T05:42:45;6.03;;;1.83;;
60241;SDS011;46103;52.076;113.488;2023-04-25T05:46:15;7.50;;;2.30;;
60241;SDS011;46103;52.076;113.488;2023-04-25T05:49:46;10.25;;;1.70;;
60241;SDS011;46103;52.076;113.488;2023-04-25T05:53:15;3.20;;;1.65;;
60241;SDS011;46103;52.076;113.488;2023-04-25T05:56:26;5.80;;;1.98;;
60241;SDS011;46103;52.076;113.488;2023-04-25T05:59:30;5.10;;;1.70;;
60241;SDS011;46103;52.076;113.488;2023-04-25T06:02:35;3.75;;;1.52;;
60241;SDS011;46103;52.076;113.488;2023-04-25T06:05:39;4.93;;;1.90;;
60241;SDS011;46103;52.076;113.488;2023-04-25T06:08:42;5.00;;;1.52;;
60241;SDS011;46103;52.076;113.488;2023-04-25T06:11:46;4.47;;;1.65;;
60241;SDS011;46103;52.076;113.488;2023-04-25T06:14:51;5.07;;;1.60;;
60241;SDS011;46103;52.076;113.488;2023-04-25T06:17:55;6.03;;;2.13;;
60241;SDS011;46103;52.076;113.488;2023-04-25T06:20:59;5.35;;;2.22;;
60241;SDS011;46103;52.076;113.488;2023-04-25T06:24:03;8.23;;;1.73;;
60241;SDS011;46103;52.076;113.488;2023-04-25T06:27:07;8.35;;;1.80;;
60241;SDS011;46103;52.076;113.488;2023-04-25T06:30:11;9.25;;;1.92;;
60241;SDS011;46103;52.076;113.488;2023-04-25T06:33:15;10.05;;;2.10;;
60241;SDS011;46103;52.076;113.488;2023-04-25T06:36:21;7.05;;;2.72;;
60241;SDS011;46103;52.076;113.488;2023-04-25T06:39:35;6.47;;;1.98;;
60241;SDS011;46103;52.076;113.488;2023-04-25T06:42:42;6.95;;;1.75;;
60241;SDS011;46103;52.076;113.488;2023-04-25T06:46:18;6.53;;;1.70;;
60241;SDS011;46103;52.076;113.488;2023-04-25T06:49:24;5.30;;;1.58;;
60241;SDS011;46103;52.076;113.488;2023-04-25T06:52:27;7.25;;;1.90;;
60241;SDS011;46103;52.076;113.488;2023-04-25T06:55:31;5.57;;;1.63;;
60241;SDS011;46103;52.076;113.488;2023-04-25T06:59:04;7.88;;;2.00;;
60241;SDS011;46103;52.076;113.488;2023-04-25T07:02:11;8.47;;;1.83;;
60241;SDS011;46103;52.076;113.488;2023-04-25T07:05:17;3.00;;;1.67;;
60241;SDS011;46103;52.076;113.488;2023-04-25T07:08:21;4.90;;;2.13;;
60241;SDS011;46103;52.076;113.488;2023-04-25T07:11:26;8.43;;;1.73;;
60241;SDS011;46103;52.076;113.488;2023-04-25T07:14:30;10.05;;;1.88;;
60241;SDS011;46103;52.076;113.488;2023-04-25T07:17:37;7.67;;;2.03;;
60241;SDS011;46103;52.076;113.488;2023-04-25T07:20:41;4.38;;;1.33;;
60241;SDS011;46103;52.076;113.488;2023-04-25T07:23:46;7.93;;;1.77;;
60241;SDS011;46103;52.076;113.488;2023-04-25T07:26:54;6.25;;;1.40;;
60241;SDS011;46103;52.076;113.488;2023-04-25T07:30:17;4.78;;;1.90;;
60241;SDS011;46103;52.076;113.488;2023-04-25T07:33:21;5.88;;;1.88;;
60241;SDS011;46103;52.076;113.488;2023-04-25T07:36:26;5.15;;;1.90;;
60241;SDS011;46103;52.076;113.488;2023-04-25T07:39:33;10.48;;;1.70;;
60241;SDS011;46103;52.076;113.488;2023-04-25T07:42:38;12.65;;;1.90;;
60241;SDS011;46103;52.076;113.488;2023-04-25T07:45:44;7.72;;;1.45;;
60241;SDS011;46103;52.076;113.488;2023-04-25T07:48:51;8.43;;;1.83;;
60241;SDS011;46103;52.076;113.488;2023-04-25T07:51:56;6.03;;;1.55;;
60241;SDS011;46103;52.076;113.488;2023-04-25T07:55:00;7.03;;;1.58;;
60241;SDS011;46103;52.076;113.488;2023-04-25T07:58:15;7.82;;;1.77;;
60241;SDS011;46103;52.076;113.488;2023-04-25T08:01:29;9.70;;;2.10;;
60241;SDS011;46103;52.076;113.488;2023-04-25T08:04:36;8.77;;;1.90;;
60241;SDS011;46103;52.076;113.488;2023-04-25T08:07:43;6.00;;;1.67;;
60241;SDS011;46103;52.076;113.488;2023-04-25T08:10:48;6.43;;;1.67;;
60241;SDS011;46103;52.076;113.488;2023-04-25T08:13:52;8.57;;;1.83;;
60241;SDS011;46103;52.076;113.488;2023-04-25T08:16:56;7.15;;;2.10;;
60241;SDS011;46103;52.076;113.488;2023-04-25T08:20:01;9.52;;;1.80;;
60241;SDS011;46103;52.076;113.488;2023-04-25T08:23:08;6.60;;;1.75;;
60241;SDS011;46103;52.076;113.488;2023-04-25T08:26:25;9.50;;;1.98;;
60241;SDS011;46103;52.076;113.488;2023-04-25T08:29:28;11.02;;;3.00;;
60241;SDS011;46103;52.076;113.488;2023-04-25T08:32:33;8.75;;;3.00;;
60241;SDS011;46103;52.076;113.488;2023-04-25T08:36:13;9.30;;;1.90;;
60241;SDS011;46103;52.076;113.488;2023-04-25T08:39:36;12.27;;;2.65;;
60241;SDS011;46103;52.076;113.488;2023-04-25T08:42:59;9.20;;;2.55;;
60241;SDS011;46103;52.076;113.488;2023-04-25T08:46:07;7.45;;;2.08;;
60241;SDS011;46103;52.076;113.488;2023-04-25T08:49:27;4.75;;;1.90;;
60241;SDS011;46103;52.076;113.488;2023-04-25T08:52:35;8.45;;;2.28;;
60241;SDS011;46103;52.076;113.488;2023-04-25T08:55:41;6.72;;;1.95;;
60241;SDS011;46103;52.076;113.488;2023-04-25T08:58:47;7.22;;;2.00;;
60241;SDS011;46103;52.076;113.488;2023-04-25T09:01:57;6.95;;;1.88;;
60241;SDS011;46103;52.076;113.488;2023-04-25T09:05:05;6.35;;;1.85;;
60241;SDS011;46103;52.076;113.488;2023-04-25T09:08:13;10.70;;;2.30;;
60241;SDS011;46103;52.076;113.488;2023-04-25T09:11:16;9.18;;;2.33;;
60241;SDS011;46103;52.076;113.488;2023-04-25T09:14:26;12.55;;;2.70;;
60241;SDS011;46103;52.076;113.488;2023-04-25T09:17:36;6.60;;;1.85;;
60241;SDS011;46103;52.076;113.488;2023-04-25T09:20:46;11.57;;;2.78;;
60241;SDS011;46103;52.076;113.488;2023-04-25T09:24:03;8.75;;;3.03;;
60241;SDS011;46103;52.076;113.488;2023-04-25T09:27:07;14.70;;;2.90;;
60241;SDS011;46103;52.076;113.488;2023-04-25T09:30:12;12.05;;;2.92;;
60241;SDS011;46103;52.076;113.488;2023-04-25T09:33:32;16.10;;;2.97;;
60241;SDS011;46103;52.076;113.488;2023-04-25T09:36:41;13.27;;;3.40;;
60241;SDS011;46103;52.076;113.488;2023-04-25T09:39:57;10.73;;;2.50;;
60241;SDS011;46103;52.076;113.488;2023-04-25T09:43:26;7.57;;;2.70;;
60241;SDS011;46103;52.076;113.488;2023-04-25T09:46:34;11.48;;;3.10;;
60241;SDS011;46103;52.076;113.488;2023-04-25T09:49:45;11.60;;;3.75;;
60241;SDS011;46103;52.076;113.488;2023-04-25T09:53:02;26.58;;;3.97;;
60241;SDS011;46103;52.076;113.488;2023-04-25T09:56:30;14.10;;;3.00;;
60241;SDS011;46103;52.076;113.488;2023-04-25T09:59:45;12.07;;;3.60;;
60241;SDS011;46103;52.076;113.488;2023-04-25T10:02:51;9.27;;;3.20;;
60241;SDS011;46103;52.076;113.488;2023-04-25T10:06:19;12.70;;;4.05;;
60241;SDS011;46103;52.076;113.488;2023-04-25T10:09:26;14.90;;;3.75;;
60241;SDS011;46103;52.076;113.488;2023-04-25T10:12:33;17.40;;;4.13;;
60241;SDS011;46103;52.076;113.488;2023-04-25T10:15:37;12.52;;;3.90;;
60241;SDS011;46103;52.076;113.488;2023-04-25T10:18:42;11.95;;;3.75;;
60241;SDS011;46103;52.076;113.488;2023-04-25T10:22:21;16.65;;;3.63;;
60241;SDS011;46103;52.076;113.488;2023-04-25T10:25:25;9.27;;;3.28;;
60241;SDS011;46103;52.076;113.488;2023-04-25T10:28:28;12.73;;;3.88;;
60241;SDS011;46103;52.076;113.488;2023-04-25T10:31:32;10.60;;;4.85;;
60241;SDS011;46103;52.076;113.488;2023-04-25T10:34:39;4.40;;;1.98;;
60241;SDS011;46103;52.076;113.488;2023-04-25T10:44:08;9.68;;;2.92;;
60241;SDS011;46103;52.076;113.488;2023-04-25T10:47:11;11.13;;;4.10;;
60241;SDS011;46103;52.076;113.488;2023-04-25T10:50:16;8.77;;;3.88;;
60241;SDS011;46103;52.076;113.488;2023-04-25T10:53:20;13.68;;;3.83;;
60241;SDS011;46103;52.076;113.488;2023-04-25T10:56:29;10.80;;;3.90;;
60241;SDS011;46103;52.076;113.488;2023-04-25T10:59:34;10.47;;;3.50;;
60241;SDS011;46103;52.076;113.488;2023-04-25T11:05:49;14.50;;;4.28;;
60241;SDS011;46103;52.076;113.488;2023-04-25T11:09:00;16.90;;;7.70;;
60241;SDS011;46103;52.076;113.488;2023-04-25T11:12:05;21.27;;;5.90;;
60241;SDS011;46103;52.076;113.488;2023-04-25T11:15:12;21.20;;;8.52;;
60241;SDS011;46103;52.076;113.488;2023-04-25T11:18:15;11.18;;;4.10;;
60241;SDS011;46103;52.076;113.488;2023-04-25T11:21:20;14.13;;;6.03;;
60241;SDS011;46103;52.076;113.488;2023-04-25T11:24:27;11.95;;;4.47;;
60241;SDS011;46103;52.076;113.488;2023-04-25T11:27:32;27.10;;;8.00;;
60241;SDS011;46103;52.076;113.488;2023-04-25T11:30:35;19.48;;;6.40;;
60241;SDS011;46103;52.076;113.488;2023-04-25T11:33:38;28.15;;;8.02;;
60241;SDS011;46103;52.076;113.488;2023-04-25T11:36:43;22.60;;;7.47;;
60241;SDS011;46103;52.076;113.488;2023-04-25T11:39:48;22.02;;;6.50;;
60241;SDS011;46103;52.076;113.488;2023-04-25T11:42:52;22.73;;;5.85;;
60241;SDS011;46103;52.076;113.488;2023-04-25T11:45:56;15.23;;;4.38;;
60241;SDS011;46103;52.076;113.488;2023-04-25T11:49:00;13.48;;;3.80;;
60241;SDS011;46103;52.076;113.488;2023-04-25T11:52:05;11.77;;;4.80;;
60241;SDS011;46103;52.076;113.488;2023-04-25T11:58:21;30.00;;;8.27;;
60241;SDS011;46103;52.076;113.488;2023-04-25T12:01:26;42.75;;;12.07;;
60241;SDS011;46103;52.076;113.488;2023-04-25T12:04:36;41.80;;;13.52;;
60241;SDS011;46103;52.076;113.488;2023-04-25T12:07:41;24.83;;;10.68;;
60241;SDS011;46103;52.076;113.488;2023-04-25T12:10:46;24.67;;;8.63;;
60241;SDS011;46103;52.076;113.488;2023-04-25T12:13:51;27.58;;;10.30;;
60241;SDS011;46103;52.076;113.488;2023-04-25T12:16:59;33.58;;;8.77;;
60241;SDS011;46103;52.076;113.488;2023-04-25T12:20:09;31.70;;;11.98;;
60241;SDS011;46103;52.076;113.488;2023-04-25T12:23:14;32.50;;;12.20;;
60241;SDS011;46103;52.076;113.488;2023-04-25T12:26:19;31.70;;;12.60;;
60241;SDS011;46103;52.076;113.488;2023-04-25T12:29:23;60.92;;;22.23;;
60241;SDS011;46103;52.076;113.488;2023-04-25T12:32:37;66.97;;;24.50;;
60241;SDS011;46103;52.076;113.488;2023-04-25T12:35:40;56.70;;;22.95;;
60241;SDS011;46103;52.076;113.488;2023-04-25T12:38:45;46.67;;;17.08;;
60241;SDS011;46103;52.076;113.488;2023-04-25T12:41:49;65.25;;;22.70;;
60241;SDS011;46103;52.076;113.488;2023-04-25T12:44:53;50.40;;;20.55;;
60241;SDS011;46103;52.076;113.488;2023-04-25T12:47:57;50.25;;;20.15;;
60241;SDS011;46103;52.076;113.488;2023-04-25T12:51:03;55.42;;;20.65;;
60241;SDS011;46103;52.076;113.488;2023-04-25T12:54:07;59.80;;;21.75;;
60241;SDS011;46103;52.076;113.488;2023-04-25T12:57:12;56.55;;;20.52;;
60241;SDS011;46103;52.076;113.488;2023-04-25T13:00:15;54.92;;;20.50;;
60241;SDS011;46103;52.076;113.488;2023-04-25T13:03:22;68.60;;;20.93;;
60241;SDS011;46103;52.076;113.488;2023-04-25T13:06:29;59.35;;;22.60;;
60241;SDS011;46103;52.076;113.488;2023-04-25T13:09:33;67.95;;;21.92;;
60241;SDS011;46103;52.076;113.488;2023-04-25T13:12:39;57.67;;;23.45;;
60241;SDS011;46103;52.076;113.488;2023-04-25T13:15:42;63.13;;;23.63;;
60241;SDS011;46103;52.076;113.488;2023-04-25T13:18:46;87.82;;;31.00;;
60241;SDS011;46103;52.076;113.488;2023-04-25T13:21:50;73.80;;;28.70;;
60241;SDS011;46103;52.076;113.488;2023-04-25T13:24:53;81.93;;;30.23;;
60241;SDS011;46103;52.076;113.488;2023-04-25T13:27:57;91.18;;;33.40;;
60241;SDS011;46103;52.076;113.488;2023-04-25T13:31:01;69.07;;;26.52;;
60241;SDS011;46103;52.076;113.488;2023-04-25T13:34:05;67.97;;;23.63;;
60241;SDS011;46103;52.076;113.488;2023-04-25T13:37:09;86.28;;;31.48;;
60241;SDS011;46103;52.076;113.488;2023-04-25T13:40:13;84.70;;;29.40;;
60241;SDS011;46103;52.076;113.488;2023-04-25T13:43:20;56.03;;;20.05;;
60241;SDS011;46103;52.076;113.488;2023-04-25T13:46:24;53.90;;;19.83;;
60241;SDS011;46103;52.076;113.488;2023-04-25T13:49:48;59.17;;;20.95;;
60241;SDS011;46103;52.076;113.488;2023-04-25T13:52:52;57.47;;;22.38;;
60241;SDS011;46103;52.076;113.488;2023-04-25T13:55:55;87.03;;;29.33;;
60241;SDS011;46103;52.076;113.488;2023-04-25T13:58:59;68.82;;;27.08;;
60241;SDS011;46103;52.076;113.488;2023-04-25T14:02:03;58.83;;;22.17;;
60241;SDS011;46103;52.076;113.488;2023-04-25T14:05:07;60.83;;;20.02;;
60241;SDS011;46103;52.076;113.488;2023-04-25T14:08:12;60.40;;;24.80;;
60241;SDS011;46103;52.076;113.488;2023-04-25T14:11:17;58.97;;;21.83;;
60241;SDS011;46103;52.076;113.488;2023-04-25T14:14:24;60.45;;;23.73;;
60241;SDS011;46103;52.076;113.488;2023-04-25T14:17:27;61.28;;;23.13;;
60241;SDS011;46103;52.076;113.488;2023-04-25T14:20:33;75.10;;;25.42;;
60241;SDS011;46103;52.076;113.488;2023-04-25T14:23:37;67.15;;;24.42;;
60241;SDS011;46103;52.076;113.488;2023-04-25T14:26:41;91.05;;;31.30;;
60241;SDS011;46103;52.076;113.488;2023-04-25T14:29:45;88.82;;;30.10;;
60241;SDS011;46103;52.076;113.488;2023-04-25T14:32:59;86.47;;;29.80;;
60241;SDS011;46103;52.076;113.488;2023-04-25T14:36:03;80.00;;;29.95;;
60241;SDS011;46103;52.076;113.488;2023-04-25T14:39:07;93.13;;;32.25;;
60241;SDS011;46103;52.076;113.488;2023-04-25T14:42:11;77.75;;;28.65;;
60241;SDS011;46103;52.076;113.488;2023-04-25T14:45:15;92.65;;;31.45;;
60241;SDS011;46103;52.076;113.488;2023-04-25T14:48:18;90.63;;;31.40;;
60241;SDS011;46103;52.076;113.488;2023-04-25T14:51:23;111.65;;;37.97;;
60241;SDS011;46103;52.076;113.488;2023-04-25T14:54:26;94.20;;;34.17;;
60241;SDS011;46103;52.076;113.488;2023-04-25T14:57:31;82.43;;;30.60;;
60241;SDS011;46103;52.076;113.488;2023-04-25T15:00:40;77.07;;;28.67;;
60241;SDS011;46103;52.076;113.488;2023-04-25T15:03:44;77.72;;;27.48;;
60241;SDS011;46103;52.076;113.488;2023-04-25T15:06:50;89.80;;;32.08;;
60241;SDS011;46103;52.076;113.488;2023-04-25T15:09:55;88.32;;;31.52;;
60241;SDS011;46103;52.076;113.488;2023-04-25T15:12:59;70.65;;;23.25;;
60241;SDS011;46103;52.076;113.488;2023-04-25T15:16:06;69.50;;;25.42;;
60241;SDS011;46103;52.076;113.488;2023-04-25T15:19:10;70.38;;;26.58;;
60241;SDS011;46103;52.076;113.488;2023-04-25T15:22:13;72.55;;;25.40;;
60241;SDS011;46103;52.076;113.488;2023-04-25T15:25:19;68.75;;;23.95;;
60241;SDS011;46103;52.076;113.488;2023-04-25T15:28:23;63.30;;;22.88;;
60241;SDS011;46103;52.076;113.488;2023-04-25T15:31:28;70.40;;;23.40;;
60241;SDS011;46103;52.076;113.488;2023-04-25T15:34:32;102.18;;;33.65;;
60241;SDS011;46103;52.076;113.488;2023-04-25T15:37:37;88.43;;;30.70;;
60241;SDS011;46103;52.076;113.488;2023-04-25T15:40:42;75.15;;;27.33;;
60241;SDS011;46103;52.076;113.488;2023-04-25T15:43:46;82.40;;;27.75;;
60241;SDS011;46103;52.076;113.488;2023-04-25T15:46:51;62.58;;;20.85;;
60241;SDS011;46103;52.076;113.488;2023-04-25T15:49:56;68.05;;;24.83;;
60241;SDS011;46103;52.076;113.488;2023-04-25T15:53:00;87.07;;;28.60;;
60241;SDS011;46103;52.076;113.488;2023-04-25T15:56:07;75.57;;;26.05;;
60241;SDS011;46103;52.076;113.488;2023-04-25T15:59:10;73.05;;;25.30;;
60241;SDS011;46103;52.076;113.488;2023-04-25T16:02:16;75.40;;;27.65;;
60241;SDS011;46103;52.076;113.488;2023-04-25T16:05:20;85.85;;;29.60;;
60241;SDS011;46103;52.076;113.488;2023-04-25T16:08:25;109.38;;;39.80;;
60241;SDS011;46103;52.076;113.488;2023-04-25T16:11:32;87.18;;;29.00;;
60241;SDS011;46103;52.076;113.488;2023-04-25T16:14:35;83.15;;;28.38;;
60241;SDS011;46103;52.076;113.488;2023-04-25T16:17:39;70.60;;;23.02;;
60241;SDS011;46103;52.076;113.488;2023-04-25T16:20:43;76.38;;;27.05;;
60241;SDS011;46103;52.076;113.488;2023-04-25T16:23:46;74.88;;;25.23;;
60241;SDS011;46103;52.076;113.488;2023-04-25T16:26:50;95.57;;;32.55;;
60241;SDS011;46103;52.076;113.488;2023-04-25T16:29:54;85.13;;;30.92;;
60241;SDS011;46103;52.076;113.488;2023-04-25T16:32:57;68.15;;;26.23;;
60241;SDS011;46103;52.076;113.488;2023-04-25T16:36:01;74.65;;;26.70;;
60241;SDS011;46103;52.076;113.488;2023-04-25T16:39:05;83.13;;;27.27;;
60241;SDS011;46103;52.076;113.488;2023-04-25T16:42:10;67.78;;;25.92;;
60241;SDS011;46103;52.076;113.488;2023-04-25T16:45:14;67.72;;;23.88;;
60241;SDS011;46103;52.076;113.488;2023-04-25T16:48:19;68.28;;;24.42;;
60241;SDS011;46103;52.076;113.488;2023-04-25T16:51:26;60.03;;;20.70;;
60241;SDS011;46103;52.076;113.488;2023-04-25T16:54:30;53.10;;;19.92;;
60241;SDS011;46103;52.076;113.488;2023-04-25T16:57:34;59.60;;;22.05;;
60241;SDS011;46103;52.076;113.488;2023-04-25T17:00:40;62.03;;;21.15;;
60241;SDS011;46103;52.076;113.488;2023-04-25T17:03:45;39.03;;;14.95;;
60241;SDS011;46103;52.076;113.488;2023-04-25T17:06:49;40.17;;;13.88;;
60241;SDS011;46103;52.076;113.488;2023-04-25T17:09:54;39.67;;;14.02;;
60241;SDS011;46103;52.076;113.488;2023-04-25T17:12:58;32.47;;;12.40;;
60241;SDS011;46103;52.076;113.488;2023-04-25T17:16:02;47.10;;;15.88;;
60241;SDS011;46103;52.076;113.488;2023-04-25T17:19:06;66.05;;;23.48;;
60241;SDS011;46103;52.076;113.488;2023-04-25T17:22:09;65.43;;;23.70;;
60241;SDS011;46103;52.076;113.488;2023-04-25T17:25:13;58.40;;;20.05;;
60241;SDS011;46103;52.076;113.488;2023-04-25T17:28:17;51.08;;;16.33;;
60241;SDS011;46103;52.076;113.488;2023-04-25T17:31:21;47.50;;;17.13;;
60241;SDS011;46103;52.076;113.488;2023-04-25T17:34:25;43.60;;;14.13;;
60241;SDS011;46103;52.076;113.488;2023-04-25T17:37:29;47.75;;;18.05;;
60241;SDS011;46103;52.076;113.488;2023-04-25T17:40:33;55.28;;;18.35;;
60241;SDS011;46103;52.076;113.488;2023-04-25T17:43:37;57.92;;;18.83;;
60241;SDS011;46103;52.076;113.488;2023-04-25T17:46:41;48.15;;;15.98;;
60241;SDS011;46103;52.076;113.488;2023-04-25T17:49:45;43.47;;;15.77;;
60241;SDS011;46103;52.076;113.488;2023-04-25T17:52:49;30.27;;;12.07;;
60241;SDS011;46103;52.076;113.488;2023-04-25T17:55:53;27.17;;;9.38;;
60241;SDS011;46103;52.076;113.488;2023-04-25T17:58:58;26.80;;;9.80;;
60241;SDS011;46103;52.076;113.488;2023-04-25T18:02:02;25.63;;;9.32;;
60241;SDS011;46103;52.076;113.488;2023-04-25T18:05:06;30.85;;;10.77;;
60241;SDS011;46103;52.076;113.488;2023-04-25T18:08:13;32.05;;;10.00;;
60241;SDS011;46103;52.076;113.488;2023-04-25T18:11:18;29.13;;;9.95;;
60241;SDS011;46103;52.076;113.488;2023-04-25T18:14:21;24.55;;;9.25;;
60241;SDS011;46103;52.076;113.488;2023-04-25T18:17:27;23.98;;;9.48;;